sensor_id;sensor_type;location;lat;lon;timestamp;temperature;humidity
72865;DHT22;61000;48.120;11.548;2024-02-28T00:01:04;6.40;99.90
72865;DHT22;61000;48.120;11.548;2024-02-28T00:03:31;6.40;99.90
72865;DHT22;61000;48.120;11.548;2024-02-28T00:05:59;6.40;99.90
72865;DHT22;61000;48.120;11.548;2024-02-28T00:08:26;6.40;99.90
72865;DHT22;61000;48.120;11.548;2024-02-28T00:10:52;6.40;99.90
72865;DHT22;61000;48.120;11.548;2024-02-28T00:13:19;6.40;99.90
72865;DHT22;61000;48.120;11.548;2024-02-28T00:15:48;6.40;99.90
72865;DHT22;61000;48.120;11.548;2024-02-28T00:18:16;6.40;99.90
72865;DHT22;61000;48.120;11.548;2024-02-28T00:20:44;6.50;99.90
72865;DHT22;61000;48.120;11.548;2024-02-28T00:23:12;6.40;99.90
72865;DHT22;61000;48.120;11.548;2024-02-28T00:25:39;6.40;99.90
72865;DHT22;61000;48.120;11.548;2024-02-28T00:28:06;6.50;99.90
72865;DHT22;61000;48.120;11.548;2024-02-28T00:30:33;6.40;99.90
72865;DHT22;61000;48.120;11.548;2024-02-28T00:33:00;6.40;99.90
72865;DHT22;61000;48.120;11.548;2024-02-28T00:35:31;6.40;99.90
72865;DHT22;61000;48.120;11.548;2024-02-28T00:37:59;6.40;99.90
72865;DHT22;61000;48.120;11.548;2024-02-28T00:40:26;6.50;99.90
72865;DHT22;61000;48.120;11.548;2024-02-28T00:42:57;6.50;99.90
72865;DHT22;61000;48.120;11.548;2024-02-28T00:45:23;6.50;99.90
72865;DHT22;61000;48.120;11.548;2024-02-28T00:47:50;6.50;99.90
72865;DHT22;61000;48.120;11.548;2024-02-28T00:50:17;6.50;99.90
72865;DHT22;61000;48.120;11.548;2024-02-28T00:52:45;6.40;99.90
72865;DHT22;61000;48.120;11.548;2024-02-28T00:55:12;6.40;99.90
72865;DHT22;61000;48.120;11.548;2024-02-28T00:57:39;6.40;99.90
72865;DHT22;61000;48.120;11.548;2024-02-28T01:00:07;6.40;99.90
72865;DHT22;61000;48.120;11.548;2024-02-28T01:02:35;6.40;99.90
72865;DHT22;61000;48.120;11.548;2024-02-28T01:05:02;6.50;99.90
72865;DHT22;61000;48.120;11.548;2024-02-28T01:07:29;6.50;99.90
72865;DHT22;61000;48.120;11.548;2024-02-28T01:09:57;6.50;99.90
72865;DHT22;61000;48.120;11.548;2024-02-28T01:12:24;6.50;99.90
72865;DHT22;61000;48.120;11.548;2024-02-28T01:14:51;6.50;99.90
72865;DHT22;61000;48.120;11.548;2024-02-28T01:17:18;6.50;99.90
72865;DHT22;61000;48.120;11.548;2024-02-28T01:19:45;6.50;99.90
72865;DHT22;61000;48.120;11.548;2024-02-28T01:22:12;6.50;99.90
72865;DHT22;61000;48.120;11.548;2024-02-28T01:24:38;6.50;99.90
72865;DHT22;61000;48.120;11.548;2024-02-28T01:27:07;6.50;99.90
72865;DHT22;61000;48.120;11.548;2024-02-28T01:29:33;6.50;99.90
72865;DHT22;61000;48.120;11.548;2024-02-28T01:32:01;6.50;99.90
72865;DHT22;61000;48.120;11.548;2024-02-28T01:34:28;6.50;99.90
72865;DHT22;61000;48.120;11.548;2024-02-28T01:36:55;6.50;99.90
72865;DHT22;61000;48.120;11.548;2024-02-28T01:39:22;6.50;99.90
72865;DHT22;61000;48.120;11.548;2024-02-28T01:41:52;6.40;99.90
72865;DHT22;61000;48.120;11.548;2024-02-28T01:44:21;6.40;99.90
72865;DHT22;61000;48.120;11.548;2024-02-28T01:46:48;6.40;99.90
72865;DHT22;61000;48.120;11.548;2024-02-28T01:49:16;6.40;99.90
72865;DHT22;61000;48.120;11.548;2024-02-28T01:51:44;6.30;99.90
72865;DHT22;61000;48.120;11.548;2024-02-28T01:54:13;6.40;99.90
72865;DHT22;61000;48.120;11.548;2024-02-28T01:56:41;6.40;99.90
72865;DHT22;61000;48.120;11.548;2024-02-28T01:59:10;6.40;99.90
72865;DHT22;61000;48.120;11.548;2024-02-28T02:01:38;6.40;99.90
72865;DHT22;61000;48.120;11.548;2024-02-28T02:04:05;6.40;99.90
72865;DHT22;61000;48.120;11.548;2024-02-28T02:06:32;6.30;99.90
72865;DHT22;61000;48.120;11.548;2024-02-28T02:09:01;6.30;99.90
72865;DHT22;61000;48.120;11.548;2024-02-28T02:11:28;6.30;99.90
72865;DHT22;61000;48.120;11.548;2024-02-28T02:13:55;6.30;99.90
72865;DHT22;61000;48.120;11.548;2024-02-28T02:16:23;6.30;99.90
72865;DHT22;61000;48.120;11.548;2024-02-28T02:18:53;6.30;99.90
72865;DHT22;61000;48.120;11.548;2024-02-28T02:21:23;6.30;99.90
72865;DHT22;61000;48.120;11.548;2024-02-28T02:23:51;6.30;99.90
72865;DHT22;61000;48.120;11.548;2024-02-28T02:26:18;6.30;99.90
72865;DHT22;61000;48.120;11.548;2024-02-28T02:28:45;6.30;99.90
72865;DHT22;61000;48.120;11.548;2024-02-28T02:31:14;6.30;99.90
72865;DHT22;61000;48.120;11.548;2024-02-28T02:33:41;6.30;99.90
72865;DHT22;61000;48.120;11.548;2024-02-28T02:36:08;6.30;99.90
72865;DHT22;61000;48.120;11.548;2024-02-28T02:38:34;6.30;99.90
72865;DHT22;61000;48.120;11.548;2024-02-28T02:41:03;6.30;99.90
72865;DHT22;61000;48.120;11.548;2024-02-28T02:43:29;6.30;99.90
72865;DHT22;61000;48.120;11.548;2024-02-28T02:45:56;6.30;99.90
72865;DHT22;61000;48.120;11.548;2024-02-28T02:48:23;6.30;99.90
72865;DHT22;61000;48.120;11.548;2024-02-28T02:50:50;6.30;99.90
72865;DHT22;61000;48.120;11.548;2024-02-28T02:53:17;6.30;99.90
72865;DHT22;61000;48.120;11.548;2024-02-28T02:55:44;6.30;99.90
72865;DHT22;61000;48.120;11.548;2024-02-28T02:58:12;6.40;99.90
72865;DHT22;61000;48.120;11.548;2024-02-28T03:00:39;6.30;99.90
72865;DHT22;61000;48.120;11.548;2024-02-28T03:03:06;6.20;99.90
72865;DHT22;61000;48.120;11.548;2024-02-28T03:05:33;6.20;99.90
72865;DHT22;61000;48.120;11.548;2024-02-28T03:08:00;6.10;99.90
72865;DHT22;61000;48.120;11.548;2024-02-28T03:10:28;6.20;99.90
72865;DHT22;61000;48.120;11.548;2024-02-28T03:12:55;6.20;99.90
72865;DHT22;61000;48.120;11.548;2024-02-28T03:15:23;6.20;99.90
72865;DHT22;61000;48.120;11.548;2024-02-28T03:17:50;6.20;99.90
72865;DHT22;61000;48.120;11.548;2024-02-28T03:20:17;6.10;99.90
72865;DHT22;61000;48.120;11.548;2024-02-28T03:22:44;6.10;99.90
72865;DHT22;61000;48.120;11.548;2024-02-28T03:25:11;6.10;99.90
72865;DHT22;61000;48.120;11.548;2024-02-28T03:27:37;6.10;99.90
72865;DHT22;61000;48.120;11.548;2024-02-28T03:30:05;6.10;99.90
72865;DHT22;61000;48.120;11.548;2024-02-28T03:32:34;5.90;99.90
72865;DHT22;61000;48.120;11.548;2024-02-28T03:35:01;5.90;99.90
72865;DHT22;61000;48.120;11.548;2024-02-28T03:37:29;5.90;99.90
72865;DHT22;61000;48.120;11.548;2024-02-28T03:39:57;5.90;99.90
72865;DHT22;61000;48.120;11.548;2024-02-28T03:42:23;5.80;99.90
72865;DHT22;61000;48.120;11.548;2024-02-28T03:44:50;5.80;99.90
72865;DHT22;61000;48.120;11.548;2024-02-28T03:47:17;5.80;99.90
72865;DHT22;61000;48.120;11.548;2024-02-28T03:49:45;5.80;99.90
72865;DHT22;61000;48.120;11.548;2024-02-28T03:52:12;5.70;99.90
72865;DHT22;61000;48.120;11.548;2024-02-28T03:54:42;5.80;99.90
72865;DHT22;61000;48.120;11.548;2024-02-28T03:57:09;5.80;99.90
72865;DHT22;61000;48.120;11.548;2024-02-28T03:59:35;5.80;99.90
72865;DHT22;61000;48.120;11.548;2024-02-28T04:02:02;5.70;99.90
72865;DHT22;61000;48.120;11.548;2024-02-28T04:04:29;5.80;99.90
72865;DHT22;61000;48.120;11.548;2024-02-28T04:06:57;5.80;99.90
72865;DHT22;61000;48.120;11.548;2024-02-28T04:09:24;5.80;99.90
72865;DHT22;61000;48.120;11.548;2024-02-28T04:11:51;5.80;99.90
72865;DHT22;61000;48.120;11.548;2024-02-28T04:14:18;5.70;99.90
72865;DHT22;61000;48.120;11.548;2024-02-28T04:16:45;5.70;99.90
72865;DHT22;61000;48.120;11.548;2024-02-28T04:19:12;5.70;99.90
72865;DHT22;61000;48.120;11.548;2024-02-28T04:21:39;5.70;99.90
72865;DHT22;61000;48.120;11.548;2024-02-28T04:24:08;5.70;99.90
72865;DHT22;61000;48.120;11.548;2024-02-28T04:26:36;5.70;99.90
72865;DHT22;61000;48.120;11.548;2024-02-28T04:29:03;5.70;99.90
72865;DHT22;61000;48.120;11.548;2024-02-28T04:31:33;5.70;99.90
72865;DHT22;61000;48.120;11.548;2024-02-28T04:34:00;5.70;99.90
72865;DHT22;61000;48.120;11.548;2024-02-28T04:36:27;5.70;99.90
72865;DHT22;61000;48.120;11.548;2024-02-28T04:38:53;5.70;99.90
72865;DHT22;61000;48.120;11.548;2024-02-28T04:41:22;5.80;99.90
72865;DHT22;61000;48.120;11.548;2024-02-28T04:43:48;5.70;99.90
72865;DHT22;61000;48.120;11.548;2024-02-28T04:46:15;5.70;99.90
72865;DHT22;61000;48.120;11.548;2024-02-28T04:48:42;5.70;99.90
72865;DHT22;61000;48.120;11.548;2024-02-28T04:51:09;5.70;99.90
72865;DHT22;61000;48.120;11.548;2024-02-28T04:53:36;5.70;99.90
72865;DHT22;61000;48.120;11.548;2024-02-28T04:56:03;5.70;99.90
72865;DHT22;61000;48.120;11.548;2024-02-28T04:58:32;5.70;99.90
72865;DHT22;61000;48.120;11.548;2024-02-28T05:00:59;5.70;99.90
72865;DHT22;61000;48.120;11.548;2024-02-28T05:03:26;5.70;99.90
72865;DHT22;61000;48.120;11.548;2024-02-28T05:05:52;5.70;99.90
72865;DHT22;61000;48.120;11.548;2024-02-28T05:08:20;5.70;99.90
72865;DHT22;61000;48.120;11.548;2024-02-28T05:10:46;5.70;99.90
72865;DHT22;61000;48.120;11.548;2024-02-28T05:13:13;5.70;99.90
72865;DHT22;61000;48.120;11.548;2024-02-28T05:15:42;5.70;99.90
72865;DHT22;61000;48.120;11.548;2024-02-28T05:18:08;5.70;99.90
72865;DHT22;61000;48.120;11.548;2024-02-28T05:20:35;5.70;99.90
72865;DHT22;61000;48.120;11.548;2024-02-28T05:23:02;5.70;99.90
72865;DHT22;61000;48.120;11.548;2024-02-28T05:25:29;5.70;99.90
72865;DHT22;61000;48.120;11.548;2024-02-28T05:27:56;5.70;99.90
72865;DHT22;61000;48.120;11.548;2024-02-28T05:30:23;5.70;99.90
72865;DHT22;61000;48.120;11.548;2024-02-28T05:32:51;5.80;99.90
72865;DHT22;61000;48.120;11.548;2024-02-28T05:35:18;5.80;99.90
72865;DHT22;61000;48.120;11.548;2024-02-28T05:37:45;5.80;99.90
72865;DHT22;61000;48.120;11.548;2024-02-28T05:40:13;5.80;99.90
72865;DHT22;61000;48.120;11.548;2024-02-28T05:42:40;5.80;99.90
72865;DHT22;61000;48.120;11.548;2024-02-28T05:45:08;5.80;99.90
72865;DHT22;61000;48.120;11.548;2024-02-28T05:47:36;5.80;99.90
72865;DHT22;61000;48.120;11.548;2024-02-28T05:50:05;5.80;99.90
72865;DHT22;61000;48.120;11.548;2024-02-28T05:52:32;5.80;99.90
72865;DHT22;61000;48.120;11.548;2024-02-28T05:54:59;5.80;99.90
72865;DHT22;61000;48.120;11.548;2024-02-28T05:57:26;5.80;99.90
72865;DHT22;61000;48.120;11.548;2024-02-28T05:59:53;5.80;99.90
72865;DHT22;61000;48.120;11.548;2024-02-28T06:02:20;5.80;99.90
72865;DHT22;61000;48.120;11.548;2024-02-28T06:04:46;5.80;99.90
72865;DHT22;61000;48.120;11.548;2024-02-28T06:07:15;5.80;99.90
72865;DHT22;61000;48.120;11.548;2024-02-28T06:09:41;5.80;99.90
72865;DHT22;61000;48.120;11.548;2024-02-28T06:12:08;5.80;99.90
72865;DHT22;61000;48.120;11.548;2024-02-28T06:14:35;5.80;99.90
72865;DHT22;61000;48.120;11.548;2024-02-28T06:17:03;5.80;99.90
72865;DHT22;61000;48.120;11.548;2024-02-28T06:19:30;5.90;99.90
72865;DHT22;61000;48.120;11.548;2024-02-28T06:21:56;5.90;99.90
72865;DHT22;61000;48.120;11.548;2024-02-28T06:24:25;5.80;99.90
72865;DHT22;61000;48.120;11.548;2024-02-28T06:26:51;5.80;99.90
72865;DHT22;61000;48.120;11.548;2024-02-28T06:29:18;5.80;99.90
72865;DHT22;61000;48.120;11.548;2024-02-28T06:31:50;5.80;99.90
72865;DHT22;61000;48.120;11.548;2024-02-28T06:34:17;5.80;99.90
72865;DHT22;61000;48.120;11.548;2024-02-28T06:36:44;5.80;99.90
72865;DHT22;61000;48.120;11.548;2024-02-28T06:39:11;5.90;99.90
72865;DHT22;61000;48.120;11.548;2024-02-28T06:41:39;5.90;99.90
72865;DHT22;61000;48.120;11.548;2024-02-28T06:44:06;5.80;99.90
72865;DHT22;61000;48.120;11.548;2024-02-28T06:46:34;5.80;99.90
72865;DHT22;61000;48.120;11.548;2024-02-28T06:49:00;5.80;99.90
72865;DHT22;61000;48.120;11.548;2024-02-28T06:51:27;5.80;99.90
72865;DHT22;61000;48.120;11.548;2024-02-28T06:53:55;5.80;99.90
72865;DHT22;61000;48.120;11.548;2024-02-28T06:56:22;5.70;99.90
72865;DHT22;61000;48.120;11.548;2024-02-28T06:58:50;5.70;99.90
72865;DHT22;61000;48.120;11.548;2024-02-28T07:01:17;5.70;99.90
72865;DHT22;61000;48.120;11.548;2024-02-28T07:03:44;5.70;99.90
72865;DHT22;61000;48.120;11.548;2024-02-28T07:06:11;5.70;99.90
72865;DHT22;61000;48.120;11.548;2024-02-28T07:08:39;5.80;99.90
72865;DHT22;61000;48.120;11.548;2024-02-28T07:11:13;5.70;99.90
72865;DHT22;61000;48.120;11.548;2024-02-28T07:13:40;5.70;99.90
72865;DHT22;61000;48.120;11.548;2024-02-28T07:16:08;5.80;99.90
72865;DHT22;61000;48.120;11.548;2024-02-28T07:18:35;5.80;99.90
72865;DHT22;61000;48.120;11.548;2024-02-28T07:21:02;5.80;99.90
72865;DHT22;61000;48.120;11.548;2024-02-28T07:23:29;5.80;99.90
72865;DHT22;61000;48.120;11.548;2024-02-28T07:25:56;5.90;99.90
72865;DHT22;61000;48.120;11.548;2024-02-28T07:28:23;5.90;99.90
72865;DHT22;61000;48.120;11.548;2024-02-28T07:30:50;5.80;99.90
72865;DHT22;61000;48.120;11.548;2024-02-28T07:33:18;5.80;99.90
72865;DHT22;61000;48.120;11.548;2024-02-28T07:35:45;5.90;99.90
72865;DHT22;61000;48.120;11.548;2024-02-28T07:38:12;5.90;99.90
72865;DHT22;61000;48.120;11.548;2024-02-28T07:40:39;5.90;99.90
72865;DHT22;61000;48.120;11.548;2024-02-28T07:43:11;5.90;99.90
72865;DHT22;61000;48.120;11.548;2024-02-28T07:45:39;6.00;99.90
72865;DHT22;61000;48.120;11.548;2024-02-28T07:48:06;5.90;99.90
72865;DHT22;61000;48.120;11.548;2024-02-28T07:50:34;5.90;99.90
72865;DHT22;61000;48.120;11.548;2024-02-28T07:53:04;5.90;99.90
72865;DHT22;61000;48.120;11.548;2024-02-28T07:55:30;6.00;99.90
72865;DHT22;61000;48.120;11.548;2024-02-28T07:57:58;6.00;99.90
72865;DHT22;61000;48.120;11.548;2024-02-28T08:00:25;6.00;99.90
72865;DHT22;61000;48.120;11.548;2024-02-28T08:02:51;6.00;99.90
72865;DHT22;61000;48.120;11.548;2024-02-28T08:05:18;6.00;99.90
72865;DHT22;61000;48.120;11.548;2024-02-28T08:07:46;6.10;99.90
72865;DHT22;61000;48.120;11.548;2024-02-28T08:10:13;6.00;99.90
72865;DHT22;61000;48.120;11.548;2024-02-28T08:12:40;6.00;99.90
72865;DHT22;61000;48.120;11.548;2024-02-28T08:15:08;6.10;99.90
72865;DHT22;61000;48.120;11.548;2024-02-28T08:17:35;6.10;99.90
72865;DHT22;61000;48.120;11.548;2024-02-28T08:20:04;6.10;99.90
72865;DHT22;61000;48.120;11.548;2024-02-28T08:22:31;6.10;99.90
72865;DHT22;61000;48.120;11.548;2024-02-28T08:24:59;6.10;99.90
72865;DHT22;61000;48.120;11.548;2024-02-28T08:27:26;6.10;99.90
72865;DHT22;61000;48.120;11.548;2024-02-28T08:29:53;6.10;99.90
72865;DHT22;61000;48.120;11.548;2024-02-28T08:32:20;6.10;99.90
72865;DHT22;61000;48.120;11.548;2024-02-28T08:34:47;6.00;99.90
72865;DHT22;61000;48.120;11.548;2024-02-28T08:37:14;6.00;99.90
72865;DHT22;61000;48.120;11.548;2024-02-28T08:39:42;6.10;99.90
72865;DHT22;61000;48.120;11.548;2024-02-28T08:42:13;6.10;99.90
72865;DHT22;61000;48.120;11.548;2024-02-28T08:44:40;6.20;99.90
72865;DHT22;61000;48.120;11.548;2024-02-28T08:47:06;6.20;99.90
72865;DHT22;61000;48.120;11.548;2024-02-28T08:49:40;6.20;99.90
72865;DHT22;61000;48.120;11.548;2024-02-28T08:52:07;6.20;99.90
72865;DHT22;61000;48.120;11.548;2024-02-28T08:54:34;6.20;99.90
72865;DHT22;61000;48.120;11.548;2024-02-28T08:57:01;6.20;99.90
72865;DHT22;61000;48.120;11.548;2024-02-28T08:59:29;6.20;99.90
72865;DHT22;61000;48.120;11.548;2024-02-28T09:01:56;6.30;99.90
72865;DHT22;61000;48.120;11.548;2024-02-28T09:04:23;6.40;99.90
72865;DHT22;61000;48.120;11.548;2024-02-28T09:06:49;6.30;99.90
72865;DHT22;61000;48.120;11.548;2024-02-28T09:09:18;6.30;99.90
72865;DHT22;61000;48.120;11.548;2024-02-28T09:11:45;6.30;99.90
72865;DHT22;61000;48.120;11.548;2024-02-28T09:14:12;6.40;99.90
72865;DHT22;61000;48.120;11.548;2024-02-28T09:16:40;6.40;99.90
72865;DHT22;61000;48.120;11.548;2024-02-28T09:19:07;6.40;99.90
72865;DHT22;61000;48.120;11.548;2024-02-28T09:21:36;6.40;99.90
72865;DHT22;61000;48.120;11.548;2024-02-28T09:24:03;6.40;99.90
72865;DHT22;61000;48.120;11.548;2024-02-28T09:26:30;6.40;99.90
72865;DHT22;61000;48.120;11.548;2024-02-28T09:28:57;6.50;99.90
72865;DHT22;61000;48.120;11.548;2024-02-28T09:31:24;6.60;99.90
72865;DHT22;61000;48.120;11.548;2024-02-28T09:33:52;6.70;99.90
72865;DHT22;61000;48.120;11.548;2024-02-28T09:36:19;6.80;99.90
72865;DHT22;61000;48.120;11.548;2024-02-28T09:38:46;6.70;99.90
72865;DHT22;61000;48.120;11.548;2024-02-28T09:41:14;6.70;99.90
72865;DHT22;61000;48.120;11.548;2024-02-28T09:43:42;6.70;99.90
72865;DHT22;61000;48.120;11.548;2024-02-28T09:46:09;6.80;99.90
72865;DHT22;61000;48.120;11.548;2024-02-28T09:48:38;6.80;99.90
72865;DHT22;61000;48.120;11.548;2024-02-28T09:51:08;6.90;99.90
72865;DHT22;61000;48.120;11.548;2024-02-28T09:53:37;6.80;99.90
72865;DHT22;61000;48.120;11.548;2024-02-28T09:56:06;6.90;99.90
72865;DHT22;61000;48.120;11.548;2024-02-28T09:58:33;6.90;99.90
72865;DHT22;61000;48.120;11.548;2024-02-28T10:01:02;6.90;99.90
72865;DHT22;61000;48.120;11.548;2024-02-28T10:03:31;6.90;99.90
72865;DHT22;61000;48.120;11.548;2024-02-28T10:05:58;6.90;99.90
72865;DHT22;61000;48.120;11.548;2024-02-28T10:08:26;6.90;99.90
72865;DHT22;61000;48.120;11.548;2024-02-28T10:10:55;7.00;99.90
72865;DHT22;61000;48.120;11.548;2024-02-28T10:13:23;7.00;99.90
72865;DHT22;61000;48.120;11.548;2024-02-28T10:15:50;7.10;99.90
72865;DHT22;61000;48.120;11.548;2024-02-28T10:18:17;7.20;99.90
72865;DHT22;61000;48.120;11.548;2024-02-28T10:20:43;7.30;99.90
72865;DHT22;61000;48.120;11.548;2024-02-28T10:23:10;7.30;99.90
72865;DHT22;61000;48.120;11.548;2024-02-28T10:25:46;7.30;99.90
72865;DHT22;61000;48.120;11.548;2024-02-28T10:28:13;7.30;99.90
72865;DHT22;61000;48.120;11.548;2024-02-28T10:30:42;7.30;99.90
72865;DHT22;61000;48.120;11.548;2024-02-28T10:33:11;7.30;99.90
72865;DHT22;61000;48.120;11.548;2024-02-28T10:35:39;7.30;99.90
72865;DHT22;61000;48.120;11.548;2024-02-28T10:38:10;7.30;99.90
72865;DHT22;61000;48.120;11.548;2024-02-28T10:40:40;7.20;99.90
72865;DHT22;61000;48.120;11.548;2024-02-28T10:43:09;7.30;99.90
72865;DHT22;61000;48.120;11.548;2024-02-28T10:45:37;7.30;99.90
72865;DHT22;61000;48.120;11.548;2024-02-28T10:48:05;7.40;99.90
72865;DHT22;61000;48.120;11.548;2024-02-28T10:50:33;7.50;99.90
72865;DHT22;61000;48.120;11.548;2024-02-28T10:53:01;7.50;99.90
72865;DHT22;61000;48.120;11.548;2024-02-28T10:55:33;7.50;99.90
72865;DHT22;61000;48.120;11.548;2024-02-28T10:58:03;7.50;99.90
72865;DHT22;61000;48.120;11.548;2024-02-28T11:00:32;7.50;99.90
72865;DHT22;61000;48.120;11.548;2024-02-28T11:02:59;7.60;99.90
72865;DHT22;61000;48.120;11.548;2024-02-28T11:05:35;7.60;99.90
72865;DHT22;61000;48.120;11.548;2024-02-28T11:08:04;7.80;99.90
72865;DHT22;61000;48.120;11.548;2024-02-28T11:10:31;7.80;99.90
72865;DHT22;61000;48.120;11.548;2024-02-28T11:12:59;7.80;99.90
72865;DHT22;61000;48.120;11.548;2024-02-28T11:15:26;7.80;99.90
72865;DHT22;61000;48.120;11.548;2024-02-28T11:17:54;7.90;99.90
72865;DHT22;61000;48.120;11.548;2024-02-28T11:20:21;7.90;99.90
72865;DHT22;61000;48.120;11.548;2024-02-28T11:22:48;7.80;99.90
72865;DHT22;61000;48.120;11.548;2024-02-28T11:25:15;7.70;99.90
72865;DHT22;61000;48.120;11.548;2024-02-28T11:27:46;7.70;99.90
72865;DHT22;61000;48.120;11.548;2024-02-28T11:30:14;7.70;99.90
72865;DHT22;61000;48.120;11.548;2024-02-28T11:32:41;7.70;99.90
72865;DHT22;61000;48.120;11.548;2024-02-28T11:35:10;7.70;99.90
72865;DHT22;61000;48.120;11.548;2024-02-28T11:37:37;7.70;99.90
72865;DHT22;61000;48.120;11.548;2024-02-28T11:40:07;7.50;99.90
72865;DHT22;61000;48.120;11.548;2024-02-28T11:42:35;7.50;99.90
72865;DHT22;61000;48.120;11.548;2024-02-28T11:45:02;7.60;99.90
72865;DHT22;61000;48.120;11.548;2024-02-28T11:47:31;7.50;99.90
72865;DHT22;61000;48.120;11.548;2024-02-28T11:50:01;7.50;99.90
72865;DHT22;61000;48.120;11.548;2024-02-28T11:52:30;7.50;99.90
72865;DHT22;61000;48.120;11.548;2024-02-28T11:54:57;7.50;99.90
72865;DHT22;61000;48.120;11.548;2024-02-28T11:57:25;7.50;99.90
72865;DHT22;61000;48.120;11.548;2024-02-28T11:59:54;7.50;99.90
72865;DHT22;61000;48.120;11.548;2024-02-28T12:02:23;7.50;99.90
72865;DHT22;61000;48.120;11.548;2024-02-28T12:04:53;7.50;99.90
72865;DHT22;61000;48.120;11.548;2024-02-28T12:07:21;7.40;99.90
72865;DHT22;61000;48.120;11.548;2024-02-28T12:09:49;7.40;99.90
72865;DHT22;61000;48.120;11.548;2024-02-28T12:12:16;7.30;99.90
72865;DHT22;61000;48.120;11.548;2024-02-28T12:14:44;7.30;99.90
72865;DHT22;61000;48.120;11.548;2024-02-28T12:17:14;7.20;99.90
72865;DHT22;61000;48.120;11.548;2024-02-28T12:19:41;7.20;99.90
72865;DHT22;61000;48.120;11.548;2024-02-28T12:22:08;7.20;99.90
72865;DHT22;61000;48.120;11.548;2024-02-28T12:24:35;7.10;99.90
72865;DHT22;61000;48.120;11.548;2024-02-28T12:27:03;7.10;99.90
72865;DHT22;61000;48.120;11.548;2024-02-28T12:29:30;7.00;99.90
72865;DHT22;61000;48.120;11.548;2024-02-28T12:31:57;7.00;99.90
72865;DHT22;61000;48.120;11.548;2024-02-28T12:34:24;7.00;99.90
72865;DHT22;61000;48.120;11.548;2024-02-28T12:36:52;7.00;99.90
72865;DHT22;61000;48.120;11.548;2024-02-28T12:39:19;6.90;99.90
72865;DHT22;61000;48.120;11.548;2024-02-28T12:41:47;7.00;99.90
72865;DHT22;61000;48.120;11.548;2024-02-28T12:44:15;6.90;99.90
72865;DHT22;61000;48.120;11.548;2024-02-28T12:46:42;6.90;99.90
72865;DHT22;61000;48.120;11.548;2024-02-28T12:49:09;7.00;99.90
72865;DHT22;61000;48.120;11.548;2024-02-28T12:51:37;7.00;99.90
72865;DHT22;61000;48.120;11.548;2024-02-28T12:54:05;7.00;99.90
72865;DHT22;61000;48.120;11.548;2024-02-28T12:56:33;7.00;99.90
72865;DHT22;61000;48.120;11.548;2024-02-28T12:59:00;7.10;99.90
72865;DHT22;61000;48.120;11.548;2024-02-28T13:01:29;7.20;99.90
72865;DHT22;61000;48.120;11.548;2024-02-28T13:03:56;7.10;99.90
72865;DHT22;61000;48.120;11.548;2024-02-28T13:06:23;7.20;99.90
72865;DHT22;61000;48.120;11.548;2024-02-28T13:08:50;7.20;99.90
72865;DHT22;61000;48.120;11.548;2024-02-28T13:11:19;7.30;99.90
72865;DHT22;61000;48.120;11.548;2024-02-28T13:13:49;7.40;99.90
72865;DHT22;61000;48.120;11.548;2024-02-28T13:16:16;7.40;99.90
72865;DHT22;61000;48.120;11.548;2024-02-28T13:18:44;7.50;99.90
72865;DHT22;61000;48.120;11.548;2024-02-28T13:21:11;7.40;99.90
72865;DHT22;61000;48.120;11.548;2024-02-28T13:23:39;7.40;99.90
72865;DHT22;61000;48.120;11.548;2024-02-28T13:26:06;7.30;99.90
72865;DHT22;61000;48.120;11.548;2024-02-28T13:28:34;7.30;99.90
72865;DHT22;61000;48.120;11.548;2024-02-28T13:31:02;7.20;99.90
72865;DHT22;61000;48.120;11.548;2024-02-28T13:33:29;7.20;99.90
72865;DHT22;61000;48.120;11.548;2024-02-28T13:35:57;7.20;99.90
72865;DHT22;61000;48.120;11.548;2024-02-28T13:38:25;7.30;99.90
72865;DHT22;61000;48.120;11.548;2024-02-28T13:40:51;7.20;99.90
72865;DHT22;61000;48.120;11.548;2024-02-28T13:43:18;7.30;99.90
72865;DHT22;61000;48.120;11.548;2024-02-28T13:45:47;7.30;99.90
72865;DHT22;61000;48.120;11.548;2024-02-28T13:48:16;7.30;99.90
72865;DHT22;61000;48.120;11.548;2024-02-28T13:50:44;7.30;99.90
72865;DHT22;61000;48.120;11.548;2024-02-28T13:53:13;7.30;99.90
72865;DHT22;61000;48.120;11.548;2024-02-28T13:55:40;7.40;99.90
72865;DHT22;61000;48.120;11.548;2024-02-28T13:58:08;7.40;99.90
72865;DHT22;61000;48.120;11.548;2024-02-28T14:00:36;7.40;99.90
72865;DHT22;61000;48.120;11.548;2024-02-28T14:03:06;7.40;99.90
72865;DHT22;61000;48.120;11.548;2024-02-28T14:05:33;7.40;99.90
72865;DHT22;61000;48.120;11.548;2024-02-28T14:08:00;7.30;99.90
72865;DHT22;61000;48.120;11.548;2024-02-28T14:10:30;7.30;99.90
72865;DHT22;61000;48.120;11.548;2024-02-28T14:12:58;7.20;99.90
72865;DHT22;61000;48.120;11.548;2024-02-28T14:15:25;7.20;99.90
72865;DHT22;61000;48.120;11.548;2024-02-28T14:17:52;7.30;99.90
72865;DHT22;61000;48.120;11.548;2024-02-28T14:20:19;7.20;99.90
72865;DHT22;61000;48.120;11.548;2024-02-28T14:22:46;7.10;99.90
72865;DHT22;61000;48.120;11.548;2024-02-28T14:25:14;7.10;99.90
72865;DHT22;61000;48.120;11.548;2024-02-28T14:27:44;7.10;99.90
72865;DHT22;61000;48.120;11.548;2024-02-28T14:30:12;7.20;99.90
72865;DHT22;61000;48.120;11.548;2024-02-28T14:32:40;7.20;99.90
72865;DHT22;61000;48.120;11.548;2024-02-28T14:35:08;7.10;99.90
72865;DHT22;61000;48.120;11.548;2024-02-28T14:37:36;7.20;99.90
72865;DHT22;61000;48.120;11.548;2024-02-28T14:40:04;7.20;99.90
72865;DHT22;61000;48.120;11.548;2024-02-28T14:42:35;7.20;99.90
72865;DHT22;61000;48.120;11.548;2024-02-28T14:45:04;7.20;99.90
72865;DHT22;61000;48.120;11.548;2024-02-28T14:47:31;7.30;99.90
72865;DHT22;61000;48.120;11.548;2024-02-28T14:49:59;7.30;99.90
72865;DHT22;61000;48.120;11.548;2024-02-28T14:52:26;7.30;99.90
72865;DHT22;61000;48.120;11.548;2024-02-28T14:54:53;7.40;99.90
72865;DHT22;61000;48.120;11.548;2024-02-28T14:57:20;7.40;99.90
72865;DHT22;61000;48.120;11.548;2024-02-28T14:59:47;7.30;99.90
72865;DHT22;61000;48.120;11.548;2024-02-28T15:02:15;7.40;99.90
72865;DHT22;61000;48.120;11.548;2024-02-28T15:04:42;7.40;99.90
72865;DHT22;61000;48.120;11.548;2024-02-28T15:07:09;7.40;99.90
72865;DHT22;61000;48.120;11.548;2024-02-28T15:09:36;7.40;99.90
72865;DHT22;61000;48.120;11.548;2024-02-28T15:12:03;7.40;99.90
72865;DHT22;61000;48.120;11.548;2024-02-28T15:14:30;7.30;99.90
72865;DHT22;61000;48.120;11.548;2024-02-28T15:16:58;7.40;99.90
72865;DHT22;61000;48.120;11.548;2024-02-28T15:19:27;7.30;99.90
72865;DHT22;61000;48.120;11.548;2024-02-28T15:21:56;7.20;99.90
72865;DHT22;61000;48.120;11.548;2024-02-28T15:24:23;7.30;99.90
72865;DHT22;61000;48.120;11.548;2024-02-28T15:26:50;7.30;99.90
72865;DHT22;61000;48.120;11.548;2024-02-28T15:29:17;7.30;99.90
72865;DHT22;61000;48.120;11.548;2024-02-28T15:31:44;7.30;99.90